sensor_id;sensor_type;location;lat;lon;timestamp;temperature;humidity
33023;DHT22;19390;51.460;5.710;2022-10-22T00:00:05;12.60;99.90
33023;DHT22;19390;51.460;5.710;2022-10-22T00:02:31;12.80;99.90
33023;DHT22;19390;51.460;5.710;2022-10-22T00:04:57;12.90;99.90
33023;DHT22;19390;51.460;5.710;2022-10-22T00:07:22;12.70;99.90
33023;DHT22;19390;51.460;5.710;2022-10-22T00:09:48;12.80;99.90
33023;DHT22;19390;51.460;5.710;2022-10-22T00:12:15;12.60;99.90
33023;DHT22;19390;51.460;5.710;2022-10-22T00:14:41;12.50;99.90
33023;DHT22;19390;51.460;5.710;2022-10-22T00:17:07;12.60;99.90
33023;DHT22;19390;51.460;5.710;2022-10-22T00:19:33;12.60;99.90
33023;DHT22;19390;51.460;5.710;2022-10-22T00:21:58;12.30;99.90
33023;DHT22;19390;51.460;5.710;2022-10-22T00:24:25;12.20;99.90
33023;DHT22;19390;51.460;5.710;2022-10-22T00:26:51;12.10;99.90
33023;DHT22;19390;51.460;5.710;2022-10-22T00:29:16;12.00;99.90
33023;DHT22;19390;51.460;5.710;2022-10-22T00:31:44;12.00;99.90
33023;DHT22;19390;51.460;5.710;2022-10-22T00:34:15;11.90;99.90
33023;DHT22;19390;51.460;5.710;2022-10-22T00:36:41;12.10;99.90
33023;DHT22;19390;51.460;5.710;2022-10-22T00:39:07;12.00;99.90
33023;DHT22;19390;51.460;5.710;2022-10-22T00:41:33;12.00;99.90
33023;DHT22;19390;51.460;5.710;2022-10-22T00:44:03;12.20;99.90
33023;DHT22;19390;51.460;5.710;2022-10-22T00:46:29;12.20;99.90
33023;DHT22;19390;51.460;5.710;2022-10-22T00:48:58;12.50;99.90
33023;DHT22;19390;51.460;5.710;2022-10-22T00:51:29;12.30;99.90
33023;DHT22;19390;51.460;5.710;2022-10-22T00:54:00;12.30;99.90
33023;DHT22;19390;51.460;5.710;2022-10-22T00:56:27;12.30;99.90
33023;DHT22;19390;51.460;5.710;2022-10-22T00:58:56;12.30;99.90
33023;DHT22;19390;51.460;5.710;2022-10-22T01:01:29;12.30;99.90
33023;DHT22;19390;51.460;5.710;2022-10-22T01:03:55;12.40;99.90
33023;DHT22;19390;51.460;5.710;2022-10-22T01:06:34;12.30;99.90
33023;DHT22;19390;51.460;5.710;2022-10-22T01:09:30;12.30;99.90
33023;DHT22;19390;51.460;5.710;2022-10-22T01:17:32;12.50;99.90
33023;DHT22;19390;51.460;5.710;2022-10-22T01:20:29;12.50;99.90
33023;DHT22;19390;51.460;5.710;2022-10-22T01:31:20;12.10;99.90
33023;DHT22;19390;51.460;5.710;2022-10-22T01:33:47;12.40;99.90
33023;DHT22;19390;51.460;5.710;2022-10-22T01:36:14;12.50;99.90
33023;DHT22;19390;51.460;5.710;2022-10-22T01:38:41;12.30;99.90
33023;DHT22;19390;51.460;5.710;2022-10-22T01:41:07;12.30;99.90
33023;DHT22;19390;51.460;5.710;2022-10-22T01:43:33;12.30;99.90
33023;DHT22;19390;51.460;5.710;2022-10-22T01:46:01;12.30;99.90
33023;DHT22;19390;51.460;5.710;2022-10-22T02:00:13;12.40;99.90
33023;DHT22;19390;51.460;5.710;2022-10-22T02:03:05;12.50;99.90
33023;DHT22;19390;51.460;5.710;2022-10-22T02:08:32;12.30;99.90
33023;DHT22;19390;51.460;5.710;2022-10-22T02:11:00;12.20;99.90
33023;DHT22;19390;51.460;5.710;2022-10-22T02:13:31;12.30;99.90
33023;DHT22;19390;51.460;5.710;2022-10-22T02:16:00;12.20;99.90
33023;DHT22;19390;51.460;5.710;2022-10-22T02:18:30;12.10;99.90
33023;DHT22;19390;51.460;5.710;2022-10-22T02:20:57;12.20;99.90
33023;DHT22;19390;51.460;5.710;2022-10-22T02:23:24;12.20;99.90
33023;DHT22;19390;51.460;5.710;2022-10-22T02:25:57;12.20;99.90
33023;DHT22;19390;51.460;5.710;2022-10-22T02:28:26;12.10;99.90
33023;DHT22;19390;51.460;5.710;2022-10-22T02:30:56;12.20;99.90
33023;DHT22;19390;51.460;5.710;2022-10-22T02:33:29;12.30;99.90
33023;DHT22;19390;51.460;5.710;2022-10-22T02:35:57;12.20;99.90
33023;DHT22;19390;51.460;5.710;2022-10-22T02:38:25;12.10;99.90
33023;DHT22;19390;51.460;5.710;2022-10-22T02:40:51;12.10;99.90
33023;DHT22;19390;51.460;5.710;2022-10-22T02:43:18;12.10;99.90
33023;DHT22;19390;51.460;5.710;2022-10-22T02:45:44;12.10;99.90
33023;DHT22;19390;51.460;5.710;2022-10-22T02:48:10;12.00;99.90
33023;DHT22;19390;51.460;5.710;2022-10-22T02:50:36;12.00;99.90
33023;DHT22;19390;51.460;5.710;2022-10-22T02:53:02;12.10;99.90
33023;DHT22;19390;51.460;5.710;2022-10-22T02:55:28;12.10;99.90
33023;DHT22;19390;51.460;5.710;2022-10-22T02:57:54;11.90;99.90
33023;DHT22;19390;51.460;5.710;2022-10-22T03:00:19;12.20;99.90
33023;DHT22;19390;51.460;5.710;2022-10-22T03:02:45;12.00;99.90
33023;DHT22;19390;51.460;5.710;2022-10-22T03:05:11;11.90;99.90
33023;DHT22;19390;51.460;5.710;2022-10-22T03:07:36;11.80;99.90
33023;DHT22;19390;51.460;5.710;2022-10-22T03:10:03;11.90;99.90
33023;DHT22;19390;51.460;5.710;2022-10-22T03:12:28;11.80;99.90
33023;DHT22;19390;51.460;5.710;2022-10-22T03:14:54;11.90;99.90
33023;DHT22;19390;51.460;5.710;2022-10-22T03:17:20;11.80;99.90
33023;DHT22;19390;51.460;5.710;2022-10-22T03:19:45;11.60;99.90
33023;DHT22;19390;51.460;5.710;2022-10-22T03:22:18;11.80;99.90
33023;DHT22;19390;51.460;5.710;2022-10-22T03:24:46;11.90;99.90
33023;DHT22;19390;51.460;5.710;2022-10-22T03:27:14;11.90;99.90
33023;DHT22;19390;51.460;5.710;2022-10-22T03:29:41;11.90;99.90
33023;DHT22;19390;51.460;5.710;2022-10-22T03:32:07;11.80;99.90
33023;DHT22;19390;51.460;5.710;2022-10-22T03:34:33;11.80;99.90
33023;DHT22;19390;51.460;5.710;2022-10-22T03:37:00;11.80;99.90
33023;DHT22;19390;51.460;5.710;2022-10-22T03:39:28;11.90;99.90
33023;DHT22;19390;51.460;5.710;2022-10-22T03:41:54;11.70;99.90
33023;DHT22;19390;51.460;5.710;2022-10-22T03:44:21;11.70;99.90
33023;DHT22;19390;51.460;5.710;2022-10-22T03:46:48;11.70;99.90
33023;DHT22;19390;51.460;5.710;2022-10-22T03:49:13;11.80;99.90
33023;DHT22;19390;51.460;5.710;2022-10-22T03:51:39;11.60;99.90
33023;DHT22;19390;51.460;5.710;2022-10-22T03:54:05;11.70;99.90
33023;DHT22;19390;51.460;5.710;2022-10-22T03:56:31;11.70;99.90
33023;DHT22;19390;51.460;5.710;2022-10-22T03:58:58;11.80;99.90
33023;DHT22;19390;51.460;5.710;2022-10-22T04:01:25;11.90;99.90
33023;DHT22;19390;51.460;5.710;2022-10-22T04:03:51;12.00;99.90
33023;DHT22;19390;51.460;5.710;2022-10-22T04:06:17;11.80;99.90
33023;DHT22;19390;51.460;5.710;2022-10-22T04:08:43;11.80;99.90
33023;DHT22;19390;51.460;5.710;2022-10-22T04:11:10;12.00;99.90
33023;DHT22;19390;51.460;5.710;2022-10-22T04:13:36;11.90;99.90
33023;DHT22;19390;51.460;5.710;2022-10-22T04:16:09;12.10;99.90
33023;DHT22;19390;51.460;5.710;2022-10-22T04:18:36;11.90;99.90
33023;DHT22;19390;51.460;5.710;2022-10-22T04:21:02;11.90;99.90
33023;DHT22;19390;51.460;5.710;2022-10-22T04:23:28;12.00;99.90
33023;DHT22;19390;51.460;5.710;2022-10-22T04:25:58;12.00;99.90
33023;DHT22;19390;51.460;5.710;2022-10-22T04:28:24;11.90;99.90
33023;DHT22;19390;51.460;5.710;2022-10-22T04:30:50;11.90;99.90
33023;DHT22;19390;51.460;5.710;2022-10-22T04:33:16;11.90;99.90
33023;DHT22;19390;51.460;5.710;2022-10-22T04:35:41;12.00;99.90
33023;DHT22;19390;51.460;5.710;2022-10-22T04:38:07;11.90;99.90
33023;DHT22;19390;51.460;5.710;2022-10-22T04:40:33;12.10;99.90
33023;DHT22;19390;51.460;5.710;2022-10-22T04:42:58;11.70;99.90
33023;DHT22;19390;51.460;5.710;2022-10-22T04:45:24;11.80;99.90
33023;DHT22;19390;51.460;5.710;2022-10-22T04:47:49;12.00;99.90
33023;DHT22;19390;51.460;5.710;2022-10-22T04:50:15;11.80;99.90
33023;DHT22;19390;51.460;5.710;2022-10-22T04:52:40;11.80;99.90
33023;DHT22;19390;51.460;5.710;2022-10-22T04:55:06;11.80;99.90
33023;DHT22;19390;51.460;5.710;2022-10-22T04:57:32;11.80;99.90
33023;DHT22;19390;51.460;5.710;2022-10-22T04:59:58;11.90;99.90
33023;DHT22;19390;51.460;5.710;2022-10-22T05:02:23;11.90;99.90
33023;DHT22;19390;51.460;5.710;2022-10-22T05:04:49;11.90;99.90
33023;DHT22;19390;51.460;5.710;2022-10-22T05:07:14;12.00;99.90
33023;DHT22;19390;51.460;5.710;2022-10-22T05:09:40;12.10;99.90
33023;DHT22;19390;51.460;5.710;2022-10-22T05:12:06;12.00;99.90
33023;DHT22;19390;51.460;5.710;2022-10-22T05:14:32;12.10;99.90
33023;DHT22;19390;51.460;5.710;2022-10-22T05:16:57;12.20;99.90
33023;DHT22;19390;51.460;5.710;2022-10-22T05:19:28;12.10;99.90
33023;DHT22;19390;51.460;5.710;2022-10-22T05:21:56;12.10;99.90
33023;DHT22;19390;51.460;5.710;2022-10-22T05:24:23;12.10;99.90
33023;DHT22;19390;51.460;5.710;2022-10-22T05:26:50;12.10;99.90
33023;DHT22;19390;51.460;5.710;2022-10-22T05:29:16;12.30;99.90
33023;DHT22;19390;51.460;5.710;2022-10-22T05:31:42;12.30;99.90
33023;DHT22;19390;51.460;5.710;2022-10-22T05:34:07;12.30;99.90
33023;DHT22;19390;51.460;5.710;2022-10-22T05:36:33;12.30;99.90
33023;DHT22;19390;51.460;5.710;2022-10-22T05:38:59;12.40;99.90
33023;DHT22;19390;51.460;5.710;2022-10-22T05:41:26;12.40;99.90
33023;DHT22;19390;51.460;5.710;2022-10-22T05:43:54;12.40;99.90
33023;DHT22;19390;51.460;5.710;2022-10-22T05:46:21;12.40;99.90
33023;DHT22;19390;51.460;5.710;2022-10-22T05:49:06;12.40;99.90
33023;DHT22;19390;51.460;5.710;2022-10-22T05:51:33;12.50;99.90
33023;DHT22;19390;51.460;5.710;2022-10-22T05:54:01;12.50;99.90
33023;DHT22;19390;51.460;5.710;2022-10-22T05:56:28;12.50;99.90
33023;DHT22;19390;51.460;5.710;2022-10-22T05:58:54;12.50;99.90
33023;DHT22;19390;51.460;5.710;2022-10-22T06:01:26;12.50;99.90
33023;DHT22;19390;51.460;5.710;2022-10-22T06:03:53;12.50;99.90
33023;DHT22;19390;51.460;5.710;2022-10-22T06:06:34;12.40;99.90
33023;DHT22;19390;51.460;5.710;2022-10-22T06:11:29;12.30;99.90
33023;DHT22;19390;51.460;5.710;2022-10-22T06:13:55;12.40;99.90
33023;DHT22;19390;51.460;5.710;2022-10-22T06:16:21;12.40;99.90
33023;DHT22;19390;51.460;5.710;2022-10-22T06:18:46;12.30;99.90
33023;DHT22;19390;51.460;5.710;2022-10-22T06:21:14;12.40;99.90
33023;DHT22;19390;51.460;5.710;2022-10-22T06:23:40;12.30;99.90
33023;DHT22;19390;51.460;5.710;2022-10-22T06:26:07;12.50;99.90
33023;DHT22;19390;51.460;5.710;2022-10-22T06:28:34;12.60;99.90
33023;DHT22;19390;51.460;5.710;2022-10-22T06:31:01;12.70;99.90
33023;DHT22;19390;51.460;5.710;2022-10-22T06:33:27;12.80;99.90
33023;DHT22;19390;51.460;5.710;2022-10-22T06:35:53;12.90;99.90
33023;DHT22;19390;51.460;5.710;2022-10-22T06:38:19;13.00;99.90
33023;DHT22;19390;51.460;5.710;2022-10-22T06:40:45;13.00;99.90
33023;DHT22;19390;51.460;5.710;2022-10-22T06:43:12;13.10;99.90
33023;DHT22;19390;51.460;5.710;2022-10-22T06:45:38;13.20;99.90
33023;DHT22;19390;51.460;5.710;2022-10-22T06:48:04;13.30;99.90
33023;DHT22;19390;51.460;5.710;2022-10-22T06:50:30;13.40;99.90
33023;DHT22;19390;51.460;5.710;2022-10-22T06:52:56;13.50;99.90
33023;DHT22;19390;51.460;5.710;2022-10-22T06:55:22;13.50;99.90
33023;DHT22;19390;51.460;5.710;2022-10-22T06:57:48;13.60;99.90
33023;DHT22;19390;51.460;5.710;2022-10-22T07:00:13;13.70;99.90
33023;DHT22;19390;51.460;5.710;2022-10-22T07:02:39;13.70;99.90
33023;DHT22;19390;51.460;5.710;2022-10-22T07:05:05;13.70;99.90
33023;DHT22;19390;51.460;5.710;2022-10-22T07:07:31;13.70;99.90
33023;DHT22;19390;51.460;5.710;2022-10-22T07:09:56;13.90;99.90
33023;DHT22;19390;51.460;5.710;2022-10-22T07:12:22;13.90;99.90
33023;DHT22;19390;51.460;5.710;2022-10-22T07:14:48;14.00;99.90
33023;DHT22;19390;51.460;5.710;2022-10-22T07:17:14;13.90;99.90
33023;DHT22;19390;51.460;5.710;2022-10-22T07:19:39;13.90;99.90
33023;DHT22;19390;51.460;5.710;2022-10-22T07:22:05;14.00;99.90
33023;DHT22;19390;51.460;5.710;2022-10-22T07:24:31;14.00;99.90
33023;DHT22;19390;51.460;5.710;2022-10-22T07:26:56;14.10;99.90
33023;DHT22;19390;51.460;5.710;2022-10-22T07:29:22;14.10;99.90
33023;DHT22;19390;51.460;5.710;2022-10-22T07:31:48;14.10;99.90
33023;DHT22;19390;51.460;5.710;2022-10-22T07:34:13;14.20;99.90
33023;DHT22;19390;51.460;5.710;2022-10-22T07:36:39;14.30;99.90
33023;DHT22;19390;51.460;5.710;2022-10-22T07:39:05;14.40;99.90
33023;DHT22;19390;51.460;5.710;2022-10-22T07:41:30;14.50;99.90
33023;DHT22;19390;51.460;5.710;2022-10-22T07:43:56;14.50;99.90
33023;DHT22;19390;51.460;5.710;2022-10-22T07:46:23;14.60;99.90
33023;DHT22;19390;51.460;5.710;2022-10-22T07:48:49;14.60;99.90
33023;DHT22;19390;51.460;5.710;2022-10-22T07:51:15;14.70;99.90
33023;DHT22;19390;51.460;5.710;2022-10-22T07:53:40;14.80;99.90
33023;DHT22;19390;51.460;5.710;2022-10-22T07:56:06;14.80;99.90
33023;DHT22;19390;51.460;5.710;2022-10-22T07:58:32;14.80;99.90
33023;DHT22;19390;51.460;5.710;2022-10-22T08:00:59;14.90;99.90
33023;DHT22;19390;51.460;5.710;2022-10-22T08:03:25;15.00;99.90
33023;DHT22;19390;51.460;5.710;2022-10-22T08:05:52;15.20;99.90
33023;DHT22;19390;51.460;5.710;2022-10-22T08:08:18;15.30;99.90
33023;DHT22;19390;51.460;5.710;2022-10-22T08:10:45;15.40;99.90
33023;DHT22;19390;51.460;5.710;2022-10-22T08:13:11;15.50;99.90
33023;DHT22;19390;51.460;5.710;2022-10-22T08:15:37;15.30;99.90
33023;DHT22;19390;51.460;5.710;2022-10-22T08:18:03;16.40;99.90
33023;DHT22;19390;51.460;5.710;2022-10-22T08:20:29;16.70;99.90
33023;DHT22;19390;51.460;5.710;2022-10-22T08:22:54;15.70;99.90
33023;DHT22;19390;51.460;5.710;2022-10-22T08:25:20;18.60;99.90
33023;DHT22;19390;51.460;5.710;2022-10-22T08:27:46;21.80;99.90
33023;DHT22;19390;51.460;5.710;2022-10-22T08:30:12;20.70;99.90
33023;DHT22;19390;51.460;5.710;2022-10-22T08:32:39;17.30;99.90
33023;DHT22;19390;51.460;5.710;2022-10-22T08:35:05;16.70;99.90
33023;DHT22;19390;51.460;5.710;2022-10-22T08:37:30;20.00;99.90
33023;DHT22;19390;51.460;5.710;2022-10-22T08:39:56;22.00;64.50
33023;DHT22;19390;51.460;5.710;2022-10-22T08:45:43;23.00;1.00
33023;DHT22;19390;51.460;5.710;2022-10-22T08:50:55;22.90;1.00
33023;DHT22;19390;51.460;5.710;2022-10-22T08:53:26;17.80;99.90
33023;DHT22;19390;51.460;5.710;2022-10-22T08:55:54;17.20;99.90
33023;DHT22;19390;51.460;5.710;2022-10-22T08:58:35;16.80;99.90
33023;DHT22;19390;51.460;5.710;2022-10-22T09:01:09;16.60;99.90
33023;DHT22;19390;51.460;5.710;2022-10-22T09:03:50;16.70;99.90
33023;DHT22;19390;51.460;5.710;2022-10-22T09:08:45;16.80;99.90
33023;DHT22;19390;51.460;5.710;2022-10-22T09:13:37;16.80;99.90
33023;DHT22;19390;51.460;5.710;2022-10-22T09:16:19;16.50;99.90
33023;DHT22;19390;51.460;5.710;2022-10-22T09:18:58;16.50;99.90
33023;DHT22;19390;51.460;5.710;2022-10-22T09:24:38;16.80;99.90
33023;DHT22;19390;51.460;5.710;2022-10-22T09:27:16;17.10;99.90
33023;DHT22;19390;51.460;5.710;2022-10-22T09:29:43;16.90;99.90
33023;DHT22;19390;51.460;5.710;2022-10-22T09:32:09;16.80;99.90
33023;DHT22;19390;51.460;5.710;2022-10-22T09:34:35;16.40;99.90
33023;DHT22;19390;51.460;5.710;2022-10-22T09:37:03;16.40;99.90
33023;DHT22;19390;51.460;5.710;2022-10-22T09:41:59;16.90;99.90
33023;DHT22;19390;51.460;5.710;2022-10-22T09:44:24;17.00;99.90
33023;DHT22;19390;51.460;5.710;2022-10-22T09:46:50;16.90;99.90
33023;DHT22;19390;51.460;5.710;2022-10-22T09:49:18;17.00;99.90
33023;DHT22;19390;51.460;5.710;2022-10-22T09:51:55;17.00;99.90
33023;DHT22;19390;51.460;5.710;2022-10-22T09:54:35;17.30;99.90
33023;DHT22;19390;51.460;5.710;2022-10-22T09:57:05;17.60;99.90
33023;DHT22;19390;51.460;5.710;2022-10-22T09:59:32;18.10;99.90
33023;DHT22;19390;51.460;5.710;2022-10-22T10:02:20;17.60;99.90
33023;DHT22;19390;51.460;5.710;2022-10-22T10:04:51;17.50;99.90
33023;DHT22;19390;51.460;5.710;2022-10-22T10:07:23;18.00;99.90
33023;DHT22;19390;51.460;5.710;2022-10-22T10:09:49;18.60;99.90
33023;DHT22;19390;51.460;5.710;2022-10-22T10:26:58;17.20;99.90
33023;DHT22;19390;51.460;5.710;2022-10-22T10:32:33;17.10;99.90
33023;DHT22;19390;51.460;5.710;2022-10-22T10:35:23;17.10;99.90
33023;DHT22;19390;51.460;5.710;2022-10-22T10:38:12;17.20;99.90
33023;DHT22;19390;51.460;5.710;2022-10-22T10:43:15;17.90;99.90
33023;DHT22;19390;51.460;5.710;2022-10-22T10:45:44;17.70;99.90
33023;DHT22;19390;51.460;5.710;2022-10-22T10:53:50;17.10;99.90
33023;DHT22;19390;51.460;5.710;2022-10-22T11:05:11;17.10;99.90
33023;DHT22;19390;51.460;5.710;2022-10-22T11:07:51;17.00;99.90
33023;DHT22;19390;51.460;5.710;2022-10-22T11:10:46;17.20;99.90
33023;DHT22;19390;51.460;5.710;2022-10-22T11:19:02;18.30;99.90
33023;DHT22;19390;51.460;5.710;2022-10-22T11:21:41;17.90;99.90
33023;DHT22;19390;51.460;5.710;2022-10-22T11:24:21;17.60;99.90
33023;DHT22;19390;51.460;5.710;2022-10-22T11:26:56;17.90;99.90
33023;DHT22;19390;51.460;5.710;2022-10-22T11:29:29;18.10;99.90
33023;DHT22;19390;51.460;5.710;2022-10-22T11:31:58;18.00;99.90
33023;DHT22;19390;51.460;5.710;2022-10-22T11:34:29;18.80;99.90
33023;DHT22;19390;51.460;5.710;2022-10-22T11:36:58;18.00;99.90
33023;DHT22;19390;51.460;5.710;2022-10-22T11:42:10;19.00;99.90
33023;DHT22;19390;51.460;5.710;2022-10-22T11:47:40;17.80;99.90
33023;DHT22;19390;51.460;5.710;2022-10-22T11:55:43;17.70;99.90
33023;DHT22;19390;51.460;5.710;2022-10-22T11:58:33;17.60;99.90
33023;DHT22;19390;51.460;5.710;2022-10-22T12:11:45;18.30;99.90
33023;DHT22;19390;51.460;5.710;2022-10-22T12:16:56;20.10;1.00
33023;DHT22;19390;51.460;5.710;2022-10-22T12:19:26;20.20;1.00
33023;DHT22;19390;51.460;5.710;2022-10-22T12:21:59;21.60;1.00
33023;DHT22;19390;51.460;5.710;2022-10-22T12:24:30;19.60;1.00
33023;DHT22;19390;51.460;5.710;2022-10-22T12:26:58;20.30;1.00
33023;DHT22;19390;51.460;5.710;2022-10-22T12:29:24;19.50;1.00
33023;DHT22;19390;51.460;5.710;2022-10-22T12:31:51;19.20;99.90
33023;DHT22;19390;51.460;5.710;2022-10-22T12:34:21;19.50;99.90
33023;DHT22;19390;51.460;5.710;2022-10-22T12:36:49;19.50;99.90
33023;DHT22;19390;51.460;5.710;2022-10-22T12:39:20;18.70;99.90
33023;DHT22;19390;51.460;5.710;2022-10-22T12:41:46;18.40;99.90
33023;DHT22;19390;51.460;5.710;2022-10-22T12:44:15;18.10;99.90
33023;DHT22;19390;51.460;5.710;2022-10-22T12:46:42;17.90;99.90
33023;DHT22;19390;51.460;5.710;2022-10-22T12:49:30;17.70;99.90
33023;DHT22;19390;51.460;5.710;2022-10-22T12:52:04;17.70;99.90
33023;DHT22;19390;51.460;5.710;2022-10-22T12:54:31;17.80;99.90
33023;DHT22;19390;51.460;5.710;2022-10-22T12:56:58;17.90;99.90
33023;DHT22;19390;51.460;5.710;2022-10-22T12:59:32;18.60;99.90
33023;DHT22;19390;51.460;5.710;2022-10-22T13:01:59;20.00;99.90
33023;DHT22;19390;51.460;5.710;2022-10-22T13:09:40;26.50;1.00
33023;DHT22;19390;51.460;5.710;2022-10-22T13:12:09;23.50;1.00
33023;DHT22;19390;51.460;5.710;2022-10-22T13:14:40;20.40;1.00
33023;DHT22;19390;51.460;5.710;2022-10-22T13:20:00;23.40;1.00
33023;DHT22;19390;51.460;5.710;2022-10-22T13:25:03;23.50;99.90
33023;DHT22;19390;51.460;5.710;2022-10-22T13:27:57;23.00;1.00
33023;DHT22;19390;51.460;5.710;2022-10-22T13:30:26;22.40;1.00
33023;DHT22;19390;51.460;5.710;2022-10-22T13:32:58;23.80;1.00
33023;DHT22;19390;51.460;5.710;2022-10-22T13:35:27;23.60;1.00
33023;DHT22;19390;51.460;5.710;2022-10-22T13:37:54;24.10;1.00
33023;DHT22;19390;51.460;5.710;2022-10-22T13:40:20;23.40;1.00
33023;DHT22;19390;51.460;5.710;2022-10-22T13:42:46;24.40;99.90
33023;DHT22;19390;51.460;5.710;2022-10-22T13:45:12;24.40;1.00
33023;DHT22;19390;51.460;5.710;2022-10-22T13:47:39;25.20;99.90
33023;DHT22;19390;51.460;5.710;2022-10-22T13:50:16;25.50;76.20
33023;DHT22;19390;51.460;5.710;2022-10-22T13:55:24;25.90;99.90
33023;DHT22;19390;51.460;5.710;2022-10-22T13:57:54;26.30;1.00
33023;DHT22;19390;51.460;5.710;2022-10-22T14:00:21;26.20;1.00
33023;DHT22;19390;51.460;5.710;2022-10-22T14:02:49;26.10;99.90
33023;DHT22;19390;51.460;5.710;2022-10-22T14:05:17;25.80;1.00
33023;DHT22;19390;51.460;5.710;2022-10-22T14:07:43;23.60;1.00
33023;DHT22;19390;51.460;5.710;2022-10-22T14:10:15;23.60;1.00
33023;DHT22;19390;51.460;5.710;2022-10-22T14:12:41;24.10;99.90
33023;DHT22;19390;51.460;5.710;2022-10-22T14:15:09;21.40;99.90
33023;DHT22;19390;51.460;5.710;2022-10-22T14:17:37;19.90;99.90
33023;DHT22;19390;51.460;5.710;2022-10-22T14:20:03;19.50;1.00
33023;DHT22;19390;51.460;5.710;2022-10-22T14:22:29;19.80;1.00
33023;DHT22;19390;51.460;5.710;2022-10-22T14:24:55;21.50;1.00
33023;DHT22;19390;51.460;5.710;2022-10-22T14:27:20;21.50;99.90
33023;DHT22;19390;51.460;5.710;2022-10-22T14:29:46;21.70;1.00
33023;DHT22;19390;51.460;5.710;2022-10-22T14:32:15;22.00;99.90
33023;DHT22;19390;51.460;5.710;2022-10-22T14:34:41;21.60;1.00
33023;DHT22;19390;51.460;5.710;2022-10-22T14:37:18;21.90;99.90
33023;DHT22;19390;51.460;5.710;2022-10-22T14:39:46;22.30;1.00
33023;DHT22;19390;51.460;5.710;2022-10-22T14:42:16;21.70;99.90
33023;DHT22;19390;51.460;5.710;2022-10-22T14:44:42;21.50;99.90
33023;DHT22;19390;51.460;5.710;2022-10-22T14:47:08;20.40;99.90
33023;DHT22;19390;51.460;5.710;2022-10-22T14:49:34;21.30;1.00
33023;DHT22;19390;51.460;5.710;2022-10-22T14:51:59;22.10;1.00
33023;DHT22;19390;51.460;5.710;2022-10-22T14:54:25;22.70;1.00
33023;DHT22;19390;51.460;5.710;2022-10-22T14:56:51;22.90;99.90
33023;DHT22;19390;51.460;5.710;2022-10-22T14:59:16;23.00;99.90
33023;DHT22;19390;51.460;5.710;2022-10-22T15:01:42;22.40;1.00
33023;DHT22;19390;51.460;5.710;2022-10-22T15:04:08;22.80;1.00
33023;DHT22;19390;51.460;5.710;2022-10-22T15:06:34;21.80;99.90
33023;DHT22;19390;51.460;5.710;2022-10-22T15:09:00;21.50;99.90
33023;DHT22;19390;51.460;5.710;2022-10-22T15:11:26;20.70;99.90
33023;DHT22;19390;51.460;5.710;2022-10-22T15:13:52;20.10;1.00
33023;DHT22;19390;51.460;5.710;2022-10-22T15:16:17;20.30;1.00
33023;DHT22;19390;51.460;5.710;2022-10-22T15:18:43;19.30;1.00
33023;DHT22;19390;51.460;5.710;2022-10-22T15:21:15;18.80;1.00
33023;DHT22;19390;51.460;5.710;2022-10-22T15:23:41;18.50;99.90
33023;DHT22;19390;51.460;5.710;2022-10-22T15:26:08;18.30;1.00
33023;DHT22;19390;51.460;5.710;2022-10-22T15:28:35;18.20;99.90
33023;DHT22;19390;51.460;5.710;2022-10-22T15:31:02;18.20;99.90
33023;DHT22;19390;51.460;5.710;2022-10-22T15:33:28;18.10;99.90
33023;DHT22;19390;51.460;5.710;2022-10-22T15:35:55;18.30;99.90
33023;DHT22;19390;51.460;5.710;2022-10-22T15:38:25;18.10;99.90
33023;DHT22;19390;51.460;5.710;2022-10-22T15:41:08;18.30;99.90
33023;DHT22;19390;51.460;5.710;2022-10-22T15:43:35;18.10;99.90
33023;DHT22;19390;51.460;5.710;2022-10-22T15:46:15;18.00;99.90
33023;DHT22;19390;51.460;5.710;2022-10-22T15:48:42;18.00;99.90
33023;DHT22;19390;51.460;5.710;2022-10-22T15:51:13;17.60;99.90
33023;DHT22;19390;51.460;5.710;2022-10-22T15:53:39;17.30;99.90
33023;DHT22;19390;51.460;5.710;2022-10-22T15:56:05;17.30;99.90
33023;DHT22;19390;51.460;5.710;2022-10-22T15:58:32;17.10;99.90
33023;DHT22;19390;51.460;5.710;2022-10-22T16:01:09;17.10;99.90
33023;DHT22;19390;51.460;5.710;2022-10-22T16:03:36;16.90;99.90
33023;DHT22;19390;51.460;5.710;2022-10-22T16:06:03;16.60;99.90
33023;DHT22;19390;51.460;5.710;2022-10-22T16:08:29;16.30;99.90
33023;DHT22;19390;51.460;5.710;2022-10-22T16:10:54;16.10;99.90
33023;DHT22;19390;51.460;5.710;2022-10-22T16:13:20;15.90;99.90
33023;DHT22;19390;51.460;5.710;2022-10-22T16:15:48;15.80;99.90
33023;DHT22;19390;51.460;5.710;2022-10-22T16:18:14;15.70;99.90
33023;DHT22;19390;51.460;5.710;2022-10-22T16:20:40;15.60;99.90
33023;DHT22;19390;51.460;5.710;2022-10-22T16:23:06;15.40;99.90
33023;DHT22;19390;51.460;5.710;2022-10-22T16:25:41;15.40;99.90
33023;DHT22;19390;51.460;5.710;2022-10-22T16:28:07;15.00;99.90
33023;DHT22;19390;51.460;5.710;2022-10-22T16:30:34;14.50;99.90
33023;DHT22;19390;51.460;5.710;2022-10-22T16:33:01;14.20;99.90
33023;DHT22;19390;51.460;5.710;2022-10-22T16:35:28;14.20;99.90
33023;DHT22;19390;51.460;5.710;2022-10-22T16:37:53;14.10;99.90
33023;DHT22;19390;51.460;5.710;2022-10-22T16:40:19;13.90;99.90
33023;DHT22;19390;51.460;5.710;2022-10-22T16:42:45;13.90;99.90
33023;DHT22;19390;51.460;5.710;2022-10-22T16:45:10;13.70;99.90
33023;DHT22;19390;51.460;5.710;2022-10-22T16:47:36;13.60;99.90
33023;DHT22;19390;51.460;5.710;2022-10-22T16:50:03;13.50;99.90
33023;DHT22;19390;51.460;5.710;2022-10-22T16:52:29;13.50;99.90
33023;DHT22;19390;51.460;5.710;2022-10-22T16:54:54;13.40;99.90
33023;DHT22;19390;51.460;5.710;2022-10-22T16:57:22;13.30;99.90
33023;DHT22;19390;51.460;5.710;2022-10-22T16:59:48;13.30;99.90
33023;DHT22;19390;51.460;5.710;2022-10-22T17:02:14;13.30;99.90
33023;DHT22;19390;51.460;5.710;2022-10-22T17:04:39;13.20;99.90
33023;DHT22;19390;51.460;5.710;2022-10-22T17:07:05;13.10;99.90
33023;DHT22;19390;51.460;5.710;2022-10-22T17:09:31;13.00;99.90
33023;DHT22;19390;51.460;5.710;2022-10-22T17:11:56;13.00;99.90
33023;DHT22;19390;51.460;5.710;2022-10-22T17:14:22;12.80;99.90
33023;DHT22;19390;51.460;5.710;2022-10-22T17:16:47;12.80;99.90
33023;DHT22;19390;51.460;5.710;2022-10-22T17:19:18;12.60;99.90
33023;DHT22;19390;51.460;5.710;2022-10-22T17:21:45;12.50;99.90
33023;DHT22;19390;51.460;5.710;2022-10-22T17:24:13;12.50;99.90
33023;DHT22;19390;51.460;5.710;2022-10-22T17:26:38;12.60;99.90
33023;DHT22;19390;51.460;5.710;2022-10-22T17:29:04;12.50;99.90
33023;DHT22;19390;51.460;5.710;2022-10-22T17:31:32;12.50;99.90
33023;DHT22;19390;51.460;5.710;2022-10-22T17:34:00;12.40;99.90
33023;DHT22;19390;51.460;5.710;2022-10-22T17:36:26;12.40;99.90
33023;DHT22;19390;51.460;5.710;2022-10-22T17:38:54;12.40;99.90
33023;DHT22;19390;51.460;5.710;2022-10-22T17:41:22;12.30;99.90
33023;DHT22;19390;51.460;5.710;2022-10-22T17:43:49;12.30;99.90